createdAt,value
2018-06-21T00:00:02.833Z,8.60
2018-06-21T00:02:30.976Z,5.83
2018-06-21T00:04:59.171Z,7.00
2018-06-21T00:07:27.104Z,10.70
2018-06-21T00:09:55.220Z,9.47
2018-06-21T00:12:23.378Z,7.37
2018-06-21T00:14:51.521Z,6.47
2018-06-21T00:17:19.675Z,7.10
2018-06-21T00:19:47.816Z,6.90
2018-06-21T00:22:15.961Z,8.07
2018-06-21T00:24:43.947Z,12.47
2018-06-21T00:27:12.097Z,5.60
2018-06-21T00:29:40.224Z,8.70
2018-06-21T00:32:08.380Z,7.90
2018-06-21T00:34:36.524Z,7.07
2018-06-21T00:37:04.644Z,6.80
2018-06-21T00:39:32.771Z,8.13
2018-06-21T00:42:00.917Z,9.08
2018-06-21T00:44:29.040Z,12.60
2018-06-21T00:46:57.180Z,9.30
2018-06-21T00:49:25.305Z,9.03
2018-06-21T00:51:53.443Z,9.87
2018-06-21T00:54:21.582Z,10.93
2018-06-21T00:56:49.706Z,12.20
2018-06-21T00:59:17.838Z,16.07
2018-06-21T01:01:45.960Z,12.77
2018-06-21T01:04:14.084Z,12.77
2018-06-21T01:06:42.202Z,12.83
2018-06-21T01:09:10.332Z,12.60
2018-06-21T01:11:38.454Z,13.20
2018-06-21T01:14:06.576Z,10.37
2018-06-21T01:16:34.720Z,13.10
2018-06-21T01:19:02.853Z,16.23
2018-06-21T01:21:30.997Z,15.13
2018-06-21T01:23:59.126Z,13.43
2018-06-21T01:26:27.342Z,20.82
2018-06-21T01:28:55.463Z,17.37
2018-06-21T01:31:24.408Z,25.20
2018-06-21T01:33:52.535Z,26.33
2018-06-21T01:36:20.660Z,23.77
2018-06-21T01:38:48.784Z,28.57
2018-06-21T01:41:16.937Z,26.60
2018-06-21T01:43:45.075Z,23.93
2018-06-21T01:46:13.208Z,22.77
2018-06-21T01:48:41.333Z,20.70
2018-06-21T01:51:09.489Z,30.77
2018-06-21T01:53:37.635Z,29.33
2018-06-21T01:56:05.756Z,32.80
2018-06-21T01:58:33.873Z,31.10
2018-06-21T02:01:02.005Z,29.03
2018-06-21T02:03:30.128Z,35.37
2018-06-21T02:05:58.297Z,34.90
2018-06-21T02:08:26.511Z,37.97
2018-06-21T02:10:54.648Z,38.83
2018-06-21T02:13:22.775Z,35.43
2018-06-21T02:15:50.918Z,38.17
2018-06-21T02:18:19.089Z,33.33
2018-06-21T02:20:47.226Z,42.67
2018-06-21T02:23:15.481Z,34.50
2018-06-21T02:25:43.626Z,35.57
2018-06-21T02:28:11.744Z,38.57
2018-06-21T02:30:39.888Z,34.03
2018-06-21T02:33:08.022Z,34.33
2018-06-21T02:35:36.148Z,38.73
2018-06-21T02:38:04.128Z,34.33
2018-06-21T02:40:32.252Z,34.30
2018-06-21T02:43:00.430Z,36.83
2018-06-21T02:45:28.573Z,39.10
2018-06-21T02:47:56.739Z,38.47
2018-06-21T02:50:24.880Z,35.77
2018-06-21T02:52:53.013Z,37.33
2018-06-21T02:55:21.149Z,30.37
2018-06-21T02:57:49.336Z,38.88
2018-06-21T03:00:17.517Z,38.20
2018-06-21T03:02:45.639Z,44.03
2018-06-21T03:05:13.744Z,37.00
2018-06-21T03:07:41.912Z,41.10
2018-06-21T03:10:10.189Z,32.73
2018-06-21T03:12:38.321Z,39.67
2018-06-21T03:15:06.465Z,41.33
2018-06-21T03:17:34.601Z,38.33
2018-06-21T03:20:02.768Z,38.13
2018-06-21T03:22:30.900Z,40.23
2018-06-21T03:24:59.028Z,31.03
2018-06-21T03:27:27.165Z,32.10
2018-06-21T03:29:55.305Z,33.67
2018-06-21T03:32:23.420Z,30.60
2018-06-21T03:34:51.339Z,34.60
2018-06-21T03:37:19.476Z,32.70
2018-06-21T03:39:47.627Z,35.27
2018-06-21T03:42:15.758Z,47.47
2018-06-21T03:44:43.923Z,43.40
2018-06-21T03:47:12.040Z,43.80
2018-06-21T03:49:40.180Z,41.40
2018-06-21T03:52:08.381Z,37.83
2018-06-21T03:54:36.468Z,42.03
2018-06-21T03:57:04.604Z,38.33
2018-06-21T03:59:32.752Z,41.03
2018-06-21T04:02:00.986Z,38.47
2018-06-21T04:04:29.122Z,38.00
2018-06-21T04:06:57.363Z,34.93
2018-06-21T04:09:25.284Z,34.23
2018-06-21T04:11:53.430Z,34.03
2018-06-21T04:14:21.564Z,34.73
2018-06-21T04:16:49.708Z,34.50
2018-06-21T04:19:17.853Z,33.80
2018-06-21T04:21:46.002Z,29.40
2018-06-21T04:24:14.128Z,27.10
2018-06-21T04:26:42.269Z,26.23
2018-06-21T04:29:10.384Z,26.13
2018-06-21T04:31:38.504Z,18.05
2018-06-21T04:34:06.744Z,16.33
2018-06-21T04:36:35.218Z,15.80
2018-06-21T04:39:03.648Z,14.60
2018-06-21T04:41:31.770Z,13.13
2018-06-21T04:43:59.885Z,11.40
2018-06-21T04:46:28.042Z,10.83
2018-06-21T04:48:56.191Z,8.30
2018-06-21T04:51:24.316Z,8.90
2018-06-21T04:53:52.457Z,8.20
2018-06-21T04:56:20.590Z,10.87
2018-06-21T04:58:48.719Z,6.17
2018-06-21T05:01:16.853Z,6.40
2018-06-21T05:03:45.072Z,6.00
2018-06-21T05:06:13.264Z,9.97
2018-06-21T05:08:41.407Z,6.80
2018-06-21T05:11:09.533Z,7.17
2018-06-21T05:13:37.864Z,6.93
2018-06-21T05:16:06.017Z,11.37
2018-06-21T05:18:34.153Z,6.07
2018-06-21T05:21:02.128Z,9.85
2018-06-21T05:23:30.252Z,6.10
2018-06-21T05:25:58.384Z,10.50
2018-06-21T05:28:26.448Z,8.83
2018-06-21T05:30:54.505Z,7.83
2018-06-21T05:33:22.598Z,11.97
2018-06-21T05:35:50.666Z,12.13
2018-06-21T05:38:18.743Z,8.93
2018-06-21T05:40:46.914Z,9.23
2018-06-21T05:43:14.990Z,10.00
2018-06-21T05:45:43.068Z,7.00
2018-06-21T05:48:11.155Z,7.70
2018-06-21T05:50:39.279Z,10.00
2018-06-21T05:53:07.331Z,8.40
2018-06-21T05:55:35.537Z,11.87
2018-06-21T05:58:03.626Z,9.37
2018-06-21T06:00:31.707Z,7.93
2018-06-21T06:02:59.770Z,13.40
2018-06-21T06:05:27.857Z,7.03
2018-06-21T06:07:55.939Z,7.90
2018-06-21T06:10:24.023Z,5.33
2018-06-21T06:12:52.110Z,9.80
2018-06-21T06:15:20.190Z,7.40
2018-06-21T06:17:48.294Z,9.20
2018-06-21T06:20:16.457Z,6.97
2018-06-21T06:22:44.559Z,8.03
2018-06-21T06:25:12.755Z,8.70
2018-06-21T06:27:40.827Z,8.47
2018-06-21T06:30:09.102Z,11.60
2018-06-21T06:32:37.280Z,9.03
2018-06-21T06:35:05.460Z,8.87
2018-06-21T06:37:33.533Z,8.63
2018-06-21T06:40:01.609Z,8.37
2018-06-21T06:42:29.744Z,6.07
2018-06-21T06:44:57.834Z,6.23
2018-06-21T06:47:26.537Z,6.07
2018-06-21T06:49:54.630Z,6.53
2018-06-21T06:52:22.882Z,12.07
2018-06-21T06:54:50.961Z,7.70
2018-06-21T06:57:19.027Z,5.07
2018-06-21T06:59:47.214Z,5.87
2018-06-21T07:02:15.310Z,6.50
2018-06-21T07:04:43.411Z,6.20
2018-06-21T07:07:11.482Z,7.80
2018-06-21T07:09:39.646Z,5.63
2018-06-21T07:12:07.724Z,3.67
2018-06-21T07:14:35.909Z,9.47
2018-06-21T07:17:03.860Z,9.53
2018-06-21T07:19:31.965Z,10.20
2018-06-21T07:22:00.045Z,12.57
2018-06-21T07:24:28.112Z,10.47
2018-06-21T07:26:56.182Z,10.63
2018-06-21T07:29:24.255Z,9.43
2018-06-21T07:31:53.275Z,9.43
2018-06-21T07:34:21.351Z,8.57
2018-06-21T07:36:49.469Z,10.47
2018-06-21T07:39:17.515Z,8.93
2018-06-21T07:41:45.583Z,9.97
2018-06-21T07:44:13.658Z,18.00
2018-06-21T07:46:41.731Z,11.17
2018-06-21T07:49:09.859Z,11.07
2018-06-21T07:51:37.925Z,14.77
2018-06-21T07:54:05.994Z,8.65
2018-06-21T07:56:34.062Z,11.40
2018-06-21T07:59:02.155Z,7.40
2018-06-21T08:01:30.214Z,9.43
2018-06-21T08:03:58.282Z,3.90
2018-06-21T08:06:26.352Z,8.63
2018-06-21T08:08:54.421Z,8.77
2018-06-21T08:11:22.495Z,9.27
2018-06-21T08:13:50.586Z,9.80
2018-06-21T08:16:18.675Z,10.37
2018-06-21T08:18:47.017Z,9.23
2018-06-21T08:21:15.074Z,11.27
2018-06-21T08:23:43.161Z,10.57
2018-06-21T08:26:11.250Z,8.80
2018-06-21T08:28:39.334Z,11.80
2018-06-21T08:31:07.447Z,11.53
2018-06-21T08:33:35.505Z,7.90
2018-06-21T08:36:03.600Z,7.83
2018-06-21T08:38:31.695Z,9.50
2018-06-21T08:40:59.754Z,12.87
2018-06-21T08:43:27.826Z,10.30
2018-06-21T08:45:55.969Z,11.07
2018-06-21T08:48:24.015Z,9.10
2018-06-21T08:50:52.082Z,12.63
2018-06-21T08:53:20.158Z,8.53
2018-06-21T08:55:48.219Z,9.57
2018-06-21T08:58:16.308Z,7.10
2018-06-21T09:00:44.501Z,8.83
2018-06-21T09:03:12.711Z,6.63
2018-06-21T09:05:40.772Z,7.87
2018-06-21T09:08:08.969Z,8.30
2018-06-21T09:10:37.035Z,11.27
2018-06-21T09:13:05.236Z,9.47
2018-06-21T09:15:33.315Z,6.37
2018-06-21T09:18:01.399Z,13.87
2018-06-21T09:20:29.526Z,11.17
2018-06-21T09:22:57.582Z,6.50
2018-06-21T09:25:25.651Z,7.07
2018-06-21T09:27:53.867Z,16.93
2018-06-21T09:30:21.959Z,11.87
2018-06-21T09:32:50.027Z,12.63
2018-06-21T09:35:18.103Z,6.57
2018-06-21T09:37:51.714Z,7.50
2018-06-21T09:40:25.330Z,9.60
2018-06-21T09:42:58.859Z,10.33
2018-06-21T09:45:32.662Z,11.20
2018-06-21T09:48:06.291Z,13.30
2018-06-21T09:50:34.375Z,11.47
2018-06-21T09:53:02.458Z,12.90
2018-06-21T09:55:30.568Z,6.30
2018-06-21T09:57:58.655Z,7.83
2018-06-21T10:00:32.143Z,11.47
2018-06-21T10:03:00.375Z,9.83
2018-06-21T10:05:28.545Z,10.40
2018-06-21T10:07:56.610Z,13.17
2018-06-21T10:10:24.693Z,8.80
2018-06-21T10:12:52.771Z,12.43
2018-06-21T10:15:20.818Z,7.20
2018-06-21T10:17:48.884Z,11.47
2018-06-21T10:20:17.016Z,11.17
2018-06-21T10:22:45.132Z,9.13
2018-06-21T10:25:13.239Z,11.10
2018-06-21T10:27:41.308Z,12.53
2018-06-21T10:30:09.484Z,12.73
2018-06-21T10:32:37.663Z,11.33
2018-06-21T10:35:05.724Z,8.83
2018-06-21T10:37:33.820Z,19.43
2018-06-21T10:40:01.887Z,18.52
2018-06-21T10:42:29.970Z,14.37
2018-06-21T10:44:58.039Z,8.10
2018-06-21T10:47:26.124Z,14.47
2018-06-21T10:49:54.270Z,12.60
2018-06-21T10:52:22.332Z,14.00
2018-06-21T10:54:50.382Z,15.27
2018-06-21T10:57:18.448Z,11.43
2018-06-21T10:59:46.510Z,6.47
2018-06-21T11:02:14.661Z,11.43
2018-06-21T11:04:42.818Z,12.07
2018-06-21T11:07:10.906Z,6.90
2018-06-21T11:09:38.963Z,9.43
2018-06-21T11:12:07.069Z,8.90
2018-06-21T11:14:35.223Z,12.90
2018-06-21T11:17:03.716Z,10.10
2018-06-21T11:19:31.866Z,14.65
2018-06-21T11:21:59.981Z,19.07
2018-06-21T11:24:28.338Z,12.45
2018-06-21T11:26:56.402Z,15.32
2018-06-21T11:29:24.454Z,8.58
2018-06-21T11:31:52.527Z,7.92
2018-06-21T11:34:20.593Z,9.38
2018-06-21T11:36:48.662Z,8.85
2018-06-21T11:39:16.747Z,11.55
2018-06-21T11:41:44.959Z,10.15
2018-06-21T11:44:13.047Z,17.40
2018-06-21T11:46:41.138Z,12.60
2018-06-21T11:49:09.196Z,15.35
2018-06-21T11:51:37.457Z,6.53
2018-06-21T11:54:05.539Z,12.50
2018-06-21T11:56:33.602Z,18.12
2018-06-21T11:59:01.690Z,11.20
2018-06-21T12:01:29.943Z,12.33
2018-06-21T12:03:58.031Z,15.47
2018-06-21T12:06:26.103Z,15.58
2018-06-21T12:08:54.194Z,16.15
2018-06-21T12:11:22.264Z,11.75
2018-06-21T12:13:50.323Z,17.75
2018-06-21T12:16:18.409Z,12.40
2018-06-21T12:18:46.666Z,14.03
2018-06-21T12:21:14.762Z,11.67
2018-06-21T12:23:42.835Z,12.10
2018-06-21T12:26:10.951Z,6.13
2018-06-21T12:28:39.107Z,8.20
2018-06-21T12:31:07.186Z,13.35
2018-06-21T12:33:35.267Z,10.00
2018-06-21T12:36:03.336Z,7.67
2018-06-21T12:38:31.408Z,4.90
2018-06-21T12:40:59.491Z,8.33
2018-06-21T12:43:27.583Z,7.83
2018-06-21T12:45:55.655Z,11.08
2018-06-21T12:48:23.706Z,7.40
2018-06-21T12:50:52.411Z,6.40
2018-06-21T12:53:20.487Z,10.25
2018-06-21T12:55:48.559Z,6.03
2018-06-21T12:58:16.634Z,8.00
2018-06-21T13:00:44.700Z,9.63
2018-06-21T13:03:12.775Z,5.50
2018-06-21T13:05:40.623Z,13.98
2018-06-21T13:08:08.687Z,7.10
2018-06-21T13:10:48.309Z,9.40
2018-06-21T13:13:20.836Z,10.93
2018-06-21T13:15:48.967Z,6.03
2018-06-21T13:18:17.058Z,10.90
2018-06-21T13:20:45.125Z,8.40
2018-06-21T13:23:13.218Z,10.17
2018-06-21T13:25:41.075Z,10.63
2018-06-21T13:28:09.154Z,10.30
2018-06-21T13:30:37.223Z,11.80
2018-06-21T13:33:05.487Z,10.13
2018-06-21T13:35:33.570Z,6.20
2018-06-21T13:38:01.659Z,11.30
2018-06-21T13:40:29.767Z,11.85
2018-06-21T13:42:57.875Z,8.30
2018-06-21T13:45:25.975Z,5.12
2018-06-21T13:47:54.046Z,8.75
2018-06-21T13:50:22.115Z,6.12
2018-06-21T13:52:50.178Z,6.72
2018-06-21T13:55:18.262Z,7.75
2018-06-21T13:57:46.383Z,6.15
2018-06-21T14:00:14.461Z,8.18
2018-06-21T14:02:42.540Z,8.93
2018-06-21T14:05:10.677Z,9.23
2018-06-21T14:07:38.803Z,12.10
2018-06-21T14:10:06.838Z,6.80
2018-06-21T14:12:34.914Z,7.80
2018-06-21T14:15:02.983Z,8.57
2018-06-21T14:17:31.063Z,10.03
2018-06-21T14:19:59.122Z,13.80
2018-06-21T14:22:27.198Z,11.03
2018-06-21T14:24:55.267Z,6.87
2018-06-21T14:27:23.324Z,9.18
2018-06-21T14:29:51.378Z,9.95
2018-06-21T14:32:19.431Z,9.48
2018-06-21T14:34:47.528Z,7.92
2018-06-21T14:37:15.599Z,6.87
2018-06-21T14:39:43.689Z,10.05
2018-06-21T14:42:11.760Z,13.15
2018-06-21T14:44:39.828Z,11.15
2018-06-21T14:47:07.904Z,8.78
2018-06-21T14:49:35.958Z,3.45
2018-06-21T14:52:04.192Z,5.92
2018-06-21T14:54:32.251Z,7.08
2018-06-21T14:57:00.354Z,6.30
2018-06-21T14:59:28.452Z,4.80
2018-06-21T15:01:56.527Z,9.38
2018-06-21T15:04:24.595Z,10.95
2018-06-21T15:06:52.714Z,7.20
2018-06-21T15:09:20.831Z,6.72
2018-06-21T15:11:48.914Z,8.43
2018-06-21T15:14:16.977Z,7.33
2018-06-21T15:16:45.079Z,9.30
2018-06-21T15:19:13.144Z,6.03
2018-06-21T15:21:41.208Z,8.38
2018-06-21T15:24:09.282Z,5.30
2018-06-21T15:26:37.428Z,6.78
2018-06-21T15:29:05.539Z,6.67
2018-06-21T15:31:33.615Z,4.80
2018-06-21T15:34:01.769Z,5.10
2018-06-21T15:36:29.832Z,5.20
2018-06-21T15:38:58.494Z,9.60
2018-06-21T15:41:27.937Z,9.75
2018-06-21T15:43:56.017Z,6.33
2018-06-21T15:46:24.068Z,7.42
2018-06-21T15:48:52.131Z,10.28
2018-06-21T15:51:20.202Z,7.42
2018-06-21T15:53:48.306Z,5.75
2018-06-21T15:56:16.391Z,6.62
2018-06-21T15:58:44.536Z,8.38
2018-06-21T16:01:12.586Z,7.95
2018-06-21T16:03:40.751Z,6.53
2018-06-21T16:06:08.821Z,7.73
2018-06-21T16:08:36.934Z,12.17
2018-06-21T16:11:05.015Z,11.90
2018-06-21T16:13:33.086Z,11.95
2018-06-21T16:16:01.159Z,11.30
2018-06-21T16:18:29.255Z,10.10
2018-06-21T16:20:57.339Z,10.17
2018-06-21T16:23:25.426Z,8.53
2018-06-21T16:25:53.499Z,15.23
2018-06-21T16:28:21.430Z,5.43
2018-06-21T16:30:49.442Z,7.37
2018-06-21T16:33:17.524Z,4.50
2018-06-21T16:35:45.588Z,7.37
2018-06-21T16:38:13.714Z,8.23
2018-06-21T16:40:41.817Z,7.28
2018-06-21T16:43:09.925Z,8.65
2018-06-21T16:45:38.001Z,8.30
2018-06-21T16:48:06.077Z,7.47
2018-06-21T16:50:34.150Z,5.78
2018-06-21T16:53:02.347Z,9.20
2018-06-21T16:55:30.412Z,7.03
2018-06-21T16:57:58.498Z,5.17
2018-06-21T17:00:26.562Z,8.25
2018-06-21T17:02:54.658Z,4.75
2018-06-21T17:05:22.516Z,7.78
2018-06-21T17:07:50.582Z,6.75
2018-06-21T17:10:18.721Z,9.88
2018-06-21T17:12:46.735Z,11.65
2018-06-21T17:15:14.800Z,8.35
2018-06-21T17:17:42.883Z,11.78
2018-06-21T17:20:11.011Z,10.93
2018-06-21T17:22:39.095Z,11.68
2018-06-21T17:25:07.294Z,12.60
2018-06-21T17:27:35.367Z,9.17
2018-06-21T17:30:03.568Z,9.73
2018-06-21T17:32:31.929Z,7.40
2018-06-21T17:35:00.291Z,4.10
2018-06-21T17:37:28.762Z,10.03
2018-06-21T17:39:56.926Z,5.07
2018-06-21T17:42:25.058Z,6.33
2018-06-21T17:44:53.119Z,4.27
2018-06-21T17:47:21.230Z,4.20
2018-06-21T17:49:49.322Z,5.50
2018-06-21T17:52:17.379Z,4.20
2018-06-21T17:54:45.692Z,8.08
2018-06-21T17:57:13.882Z,7.37
2018-06-21T17:59:41.955Z,6.97
2018-06-21T18:02:10.054Z,7.33
2018-06-21T18:04:38.148Z,7.97
2018-06-21T18:07:06.218Z,11.47
2018-06-21T18:09:34.307Z,9.67
2018-06-21T18:12:02.386Z,5.67
2018-06-21T18:14:30.622Z,10.17
2018-06-21T18:16:58.714Z,10.30
2018-06-21T18:19:26.771Z,6.43
2018-06-21T18:21:54.838Z,5.70
2018-06-21T18:24:23.071Z,6.60
2018-06-21T18:26:51.426Z,4.10
2018-06-21T18:29:19.535Z,8.37
2018-06-21T18:31:47.595Z,10.97
2018-06-21T18:34:15.719Z,8.67
2018-06-21T18:36:43.787Z,4.17
2018-06-21T18:39:12.639Z,11.75
2018-06-21T18:41:41.203Z,8.17
2018-06-21T18:44:09.356Z,9.17
2018-06-21T18:46:37.527Z,14.70
2018-06-21T18:49:05.629Z,12.90
2018-06-21T18:51:33.693Z,8.33
2018-06-21T18:54:01.766Z,15.47
2018-06-21T18:56:29.843Z,10.90
2018-06-21T18:58:57.912Z,12.33
2018-06-21T19:01:26.018Z,18.17
2018-06-21T19:03:54.018Z,15.83
2018-06-21T19:06:28.046Z,18.93
2018-06-21T19:09:01.663Z,18.27
2018-06-21T19:12:07.881Z,11.17
2018-06-21T19:14:35.742Z,12.83
2018-06-21T19:17:03.674Z,10.37
2018-06-21T19:19:31.776Z,13.20
2018-06-21T19:21:59.850Z,9.93
2018-06-21T19:24:27.864Z,8.00
2018-06-21T19:31:58.867Z,15.15
2018-06-21T19:34:26.941Z,19.40
2018-06-21T19:44:03.971Z,11.87
2018-06-21T19:46:32.043Z,15.50
2018-06-21T19:49:00.173Z,13.50
2018-06-21T19:51:28.223Z,9.83
2018-06-21T19:57:02.834Z,11.73
2018-06-21T19:59:30.948Z,11.70
2018-06-21T20:05:12.204Z,6.03
2018-06-21T20:07:40.310Z,12.67
2018-06-21T20:10:08.366Z,11.50
2018-06-21T20:12:36.602Z,11.13
2018-06-21T20:15:04.775Z,11.40
2018-06-21T20:17:32.844Z,4.77
2018-06-21T20:20:06.473Z,12.20
2018-06-21T20:22:34.595Z,11.68
2018-06-21T20:25:02.663Z,14.60
2018-06-21T20:27:30.739Z,11.65
2018-06-21T20:29:58.802Z,10.57
2018-06-21T20:32:26.883Z,7.77
2018-06-21T20:34:54.967Z,18.30
2018-06-21T20:37:23.098Z,7.57
2018-06-21T20:39:51.171Z,10.27
2018-06-21T20:42:19.267Z,13.90
2018-06-21T20:44:47.324Z,15.00
2018-06-21T20:47:15.398Z,13.50
2018-06-21T20:49:43.471Z,10.40
2018-06-21T20:52:17.154Z,11.63
2018-06-21T20:54:45.514Z,14.73
2018-06-21T20:57:13.613Z,12.60
2018-06-21T20:59:42.194Z,9.83
2018-06-21T21:02:10.271Z,11.53
2018-06-21T21:04:49.390Z,7.57
2018-06-21T21:07:17.461Z,21.93
2018-06-21T21:09:45.523Z,13.87
2018-06-21T21:12:13.620Z,8.97
2018-06-21T21:14:41.682Z,13.07
2018-06-21T21:17:09.674Z,10.03
2018-06-21T21:19:37.734Z,7.30
2018-06-21T21:22:05.846Z,12.80
2018-06-21T21:24:34.615Z,7.20
2018-06-21T21:27:02.757Z,11.00
2018-06-21T21:29:30.834Z,11.27
2018-06-21T21:31:58.810Z,7.03
2018-06-21T21:34:26.931Z,16.93
2018-06-21T21:36:55.043Z,6.80
2018-06-21T21:39:23.198Z,5.77
2018-06-21T21:41:51.255Z,9.57
2018-06-21T21:44:19.354Z,8.53
2018-06-21T21:46:47.504Z,9.47
2018-06-21T21:49:15.585Z,10.03
2018-06-21T21:51:43.662Z,10.80
2018-06-21T21:54:11.751Z,7.73
2018-06-21T21:56:39.674Z,6.27
2018-06-21T21:59:07.751Z,17.40
2018-06-21T22:01:35.855Z,9.13
2018-06-21T22:04:03.909Z,9.83
2018-06-21T22:06:31.978Z,7.77
2018-06-21T22:09:00.048Z,11.23
2018-06-21T22:11:28.122Z,9.43
2018-06-21T22:14:01.606Z,11.18
2018-06-21T22:16:29.758Z,10.63
2018-06-21T22:18:57.834Z,14.03
2018-06-21T22:21:25.880Z,9.63
2018-06-21T22:23:53.942Z,11.40
2018-06-21T22:26:22.025Z,12.63
2018-06-21T22:28:50.252Z,15.60
2018-06-21T22:31:18.431Z,14.43
2018-06-21T22:33:46.807Z,13.83
2018-06-21T22:36:14.909Z,14.07
2018-06-21T22:38:42.934Z,8.33
2018-06-21T22:41:11.007Z,13.00
2018-06-21T22:43:39.286Z,9.43
2018-06-21T22:46:07.886Z,12.73
2018-06-21T22:48:36.454Z,11.33
2018-06-21T22:51:04.503Z,13.57
2018-06-21T22:53:32.586Z,11.63
2018-06-21T22:56:00.661Z,13.80
2018-06-21T22:58:28.720Z,9.37
2018-06-21T23:00:56.847Z,9.33
2018-06-21T23:03:25.085Z,21.97
2018-06-21T23:05:53.223Z,11.43
2018-06-21T23:08:21.323Z,11.63
2018-06-21T23:10:49.379Z,9.43
2018-06-21T23:13:17.444Z,16.20
2018-06-21T23:15:45.513Z,14.20
2018-06-21T23:18:23.938Z,17.03
2018-06-21T23:20:52.000Z,13.10
2018-06-21T23:23:20.040Z,9.20
2018-06-21T23:25:48.082Z,12.53
2018-06-21T23:28:16.147Z,12.40
2018-06-21T23:30:44.295Z,9.20
2018-06-21T23:33:12.355Z,12.07
2018-06-21T23:35:40.412Z,12.37
2018-06-21T23:38:08.473Z,13.93
2018-06-21T23:40:36.533Z,9.93
2018-06-21T23:43:04.616Z,9.93
2018-06-21T23:45:32.676Z,10.23
2018-06-21T23:48:00.746Z,16.83
2018-06-21T23:50:28.818Z,11.43
2018-06-21T23:52:56.753Z,12.83
2018-06-21T23:55:24.882Z,12.27
2018-06-21T23:57:52.941Z,11.33
